sensor_id;sensor_type;location;lat;lon;timestamp;pressure;altitude;pressure_sealevel;temperature
58929;BMP180;44713;53.378;10.022;2023-07-16T00:00:51;100559.00;;;20.50
58929;BMP180;44713;53.378;10.022;2023-07-16T00:03:16;100558.00;;;20.60
58929;BMP180;44713;53.378;10.022;2023-07-16T00:05:42;100543.00;;;20.50
58929;BMP180;44713;53.378;10.022;2023-07-16T00:08:07;100560.00;;;20.50
58929;BMP180;44713;53.378;10.022;2023-07-16T00:10:35;100544.00;;;20.50
58929;BMP180;44713;53.378;10.022;2023-07-16T00:13:00;100534.00;;;20.60
58929;BMP180;44713;53.378;10.022;2023-07-16T00:15:26;100524.00;;;20.60
58929;BMP180;44713;53.378;10.022;2023-07-16T00:17:51;100554.00;;;20.50
58929;BMP180;44713;53.378;10.022;2023-07-16T00:20:17;100563.00;;;20.50
58929;BMP180;44713;53.378;10.022;2023-07-16T00:22:42;100562.00;;;20.40
58929;BMP180;44713;53.378;10.022;2023-07-16T00:25:08;100576.00;;;20.30
58929;BMP180;44713;53.378;10.022;2023-07-16T00:27:33;100566.00;;;20.30
58929;BMP180;44713;53.378;10.022;2023-07-16T00:29:59;100581.00;;;20.30
58929;BMP180;44713;53.378;10.022;2023-07-16T00:32:24;100591.00;;;20.20
58929;BMP180;44713;53.378;10.022;2023-07-16T00:34:50;100591.00;;;20.20
58929;BMP180;44713;53.378;10.022;2023-07-16T00:37:15;100608.00;;;20.20
58929;BMP180;44713;53.378;10.022;2023-07-16T00:39:40;100616.00;;;20.20
58929;BMP180;44713;53.378;10.022;2023-07-16T00:42:06;100624.00;;;20.20
58929;BMP180;44713;53.378;10.022;2023-07-16T00:44:31;100612.00;;;20.20
58929;BMP180;44713;53.378;10.022;2023-07-16T00:46:57;100588.00;;;20.20
58929;BMP180;44713;53.378;10.022;2023-07-16T00:49:23;100590.00;;;20.20
58929;BMP180;44713;53.378;10.022;2023-07-16T00:51:50;100589.00;;;20.20
58929;BMP180;44713;53.378;10.022;2023-07-16T00:54:16;100604.00;;;20.10
58929;BMP180;44713;53.378;10.022;2023-07-16T00:56:41;100596.00;;;20.20
58929;BMP180;44713;53.378;10.022;2023-07-16T00:59:06;100592.00;;;20.10
58929;BMP180;44713;53.378;10.022;2023-07-16T01:01:32;100586.00;;;20.10
58929;BMP180;44713;53.378;10.022;2023-07-16T01:03:57;100572.00;;;20.10
58929;BMP180;44713;53.378;10.022;2023-07-16T01:06:25;100560.00;;;20.10
58929;BMP180;44713;53.378;10.022;2023-07-16T01:09:02;100562.00;;;20.10
58929;BMP180;44713;53.378;10.022;2023-07-16T01:11:28;100604.00;;;20.00
58929;BMP180;44713;53.378;10.022;2023-07-16T01:13:55;100624.00;;;19.90
58929;BMP180;44713;53.378;10.022;2023-07-16T01:16:22;100615.00;;;19.90
58929;BMP180;44713;53.378;10.022;2023-07-16T01:18:49;100600.00;;;20.00
58929;BMP180;44713;53.378;10.022;2023-07-16T01:21:18;100578.00;;;20.00
58929;BMP180;44713;53.378;10.022;2023-07-16T01:23:56;100586.00;;;20.00
58929;BMP180;44713;53.378;10.022;2023-07-16T01:32:14;100587.00;;;19.80
58929;BMP180;44713;53.378;10.022;2023-07-16T01:34:40;100592.00;;;19.90
58929;BMP180;44713;53.378;10.022;2023-07-16T01:37:06;100613.00;;;19.90
58929;BMP180;44713;53.378;10.022;2023-07-16T01:39:32;100612.00;;;19.90
58929;BMP180;44713;53.378;10.022;2023-07-16T01:42:01;100608.00;;;19.80
58929;BMP180;44713;53.378;10.022;2023-07-16T01:44:26;100603.00;;;19.70
58929;BMP180;44713;53.378;10.022;2023-07-16T01:47:24;100608.00;;;19.80
58929;BMP180;44713;53.378;10.022;2023-07-16T01:49:53;100610.00;;;19.70
58929;BMP180;44713;53.378;10.022;2023-07-16T01:52:18;100611.00;;;19.60
58929;BMP180;44713;53.378;10.022;2023-07-16T01:54:43;100612.00;;;19.70
58929;BMP180;44713;53.378;10.022;2023-07-16T01:57:09;100615.00;;;19.60
58929;BMP180;44713;53.378;10.022;2023-07-16T01:59:34;100613.00;;;19.60
58929;BMP180;44713;53.378;10.022;2023-07-16T02:01:59;100628.00;;;19.50
58929;BMP180;44713;53.378;10.022;2023-07-16T02:04:25;100634.00;;;19.50
58929;BMP180;44713;53.378;10.022;2023-07-16T02:06:50;100637.00;;;19.50
58929;BMP180;44713;53.378;10.022;2023-07-16T02:09:19;100633.00;;;19.50
58929;BMP180;44713;53.378;10.022;2023-07-16T02:11:44;100610.00;;;19.50
58929;BMP180;44713;53.378;10.022;2023-07-16T02:14:09;100598.00;;;19.50
58929;BMP180;44713;53.378;10.022;2023-07-16T02:16:35;100614.00;;;19.50
58929;BMP180;44713;53.378;10.022;2023-07-16T02:19:00;100615.00;;;19.50
58929;BMP180;44713;53.378;10.022;2023-07-16T02:21:26;100615.00;;;19.50
58929;BMP180;44713;53.378;10.022;2023-07-16T02:23:51;100626.00;;;19.50
58929;BMP180;44713;53.378;10.022;2023-07-16T02:26:16;100622.00;;;19.50
58929;BMP180;44713;53.378;10.022;2023-07-16T02:28:42;100627.00;;;19.50
58929;BMP180;44713;53.378;10.022;2023-07-16T02:31:07;100628.00;;;19.50
58929;BMP180;44713;53.378;10.022;2023-07-16T02:33:32;100629.00;;;19.40
58929;BMP180;44713;53.378;10.022;2023-07-16T02:35:58;100616.00;;;19.40
58929;BMP180;44713;53.378;10.022;2023-07-16T02:38:23;100616.00;;;19.40
58929;BMP180;44713;53.378;10.022;2023-07-16T02:40:49;100618.00;;;19.40
58929;BMP180;44713;53.378;10.022;2023-07-16T02:43:14;100610.00;;;19.40
58929;BMP180;44713;53.378;10.022;2023-07-16T02:45:40;100592.00;;;19.40
58929;BMP180;44713;53.378;10.022;2023-07-16T02:48:06;100602.00;;;19.40
58929;BMP180;44713;53.378;10.022;2023-07-16T02:50:38;100608.00;;;19.30
58929;BMP180;44713;53.378;10.022;2023-07-16T02:53:04;100607.00;;;19.30
58929;BMP180;44713;53.378;10.022;2023-07-16T02:55:30;100611.00;;;19.30
58929;BMP180;44713;53.378;10.022;2023-07-16T02:57:55;100610.00;;;19.30
58929;BMP180;44713;53.378;10.022;2023-07-16T03:00:21;100607.00;;;19.30
58929;BMP180;44713;53.378;10.022;2023-07-16T03:02:46;100608.00;;;19.40
58929;BMP180;44713;53.378;10.022;2023-07-16T03:05:11;100609.00;;;19.40
58929;BMP180;44713;53.378;10.022;2023-07-16T03:07:37;100598.00;;;19.30
58929;BMP180;44713;53.378;10.022;2023-07-16T03:10:02;100586.00;;;19.30
58929;BMP180;44713;53.378;10.022;2023-07-16T03:12:28;100586.00;;;19.30
58929;BMP180;44713;53.378;10.022;2023-07-16T03:14:53;100590.00;;;19.30
58929;BMP180;44713;53.378;10.022;2023-07-16T03:17:20;100595.00;;;19.30
58929;BMP180;44713;53.378;10.022;2023-07-16T03:19:46;100604.00;;;19.20
58929;BMP180;44713;53.378;10.022;2023-07-16T03:22:12;100607.00;;;19.20
58929;BMP180;44713;53.378;10.022;2023-07-16T03:24:37;100607.00;;;19.20
58929;BMP180;44713;53.378;10.022;2023-07-16T03:27:03;100610.00;;;19.20
58929;BMP180;44713;53.378;10.022;2023-07-16T03:29:28;100612.00;;;19.20
58929;BMP180;44713;53.378;10.022;2023-07-16T03:31:54;100621.00;;;19.20
58929;BMP180;44713;53.378;10.022;2023-07-16T03:34:20;100617.00;;;19.20
58929;BMP180;44713;53.378;10.022;2023-07-16T03:36:46;100621.00;;;19.20
58929;BMP180;44713;53.378;10.022;2023-07-16T03:39:12;100624.00;;;19.10
58929;BMP180;44713;53.378;10.022;2023-07-16T03:41:37;100627.00;;;19.10
58929;BMP180;44713;53.378;10.022;2023-07-16T03:44:03;100626.00;;;19.10
58929;BMP180;44713;53.378;10.022;2023-07-16T03:46:32;100633.00;;;19.10
58929;BMP180;44713;53.378;10.022;2023-07-16T03:48:58;100637.00;;;19.10
58929;BMP180;44713;53.378;10.022;2023-07-16T03:51:23;100645.00;;;19.10
58929;BMP180;44713;53.378;10.022;2023-07-16T03:53:48;100644.00;;;19.00
58929;BMP180;44713;53.378;10.022;2023-07-16T03:56:14;100658.00;;;19.00
58929;BMP180;44713;53.378;10.022;2023-07-16T03:58:39;100660.00;;;18.90
58929;BMP180;44713;53.378;10.022;2023-07-16T04:01:06;100665.00;;;18.80
58929;BMP180;44713;53.378;10.022;2023-07-16T04:03:31;100667.00;;;18.80
58929;BMP180;44713;53.378;10.022;2023-07-16T04:06:09;100677.00;;;18.70
58929;BMP180;44713;53.378;10.022;2023-07-16T04:08:35;100691.00;;;18.80
58929;BMP180;44713;53.378;10.022;2023-07-16T04:11:01;100682.00;;;18.70
58929;BMP180;44713;53.378;10.022;2023-07-16T04:13:27;100681.00;;;18.70
58929;BMP180;44713;53.378;10.022;2023-07-16T04:15:52;100680.00;;;18.80
58929;BMP180;44713;53.378;10.022;2023-07-16T04:18:22;100684.00;;;18.80
58929;BMP180;44713;53.378;10.022;2023-07-16T04:20:48;100686.00;;;18.80
58929;BMP180;44713;53.378;10.022;2023-07-16T04:23:13;100688.00;;;18.90
58929;BMP180;44713;53.378;10.022;2023-07-16T04:25:38;100688.00;;;18.90
58929;BMP180;44713;53.378;10.022;2023-07-16T04:28:04;100693.00;;;18.90
58929;BMP180;44713;53.378;10.022;2023-07-16T04:30:29;100691.00;;;18.70
58929;BMP180;44713;53.378;10.022;2023-07-16T04:32:55;100695.00;;;18.70
58929;BMP180;44713;53.378;10.022;2023-07-16T04:35:20;100693.00;;;18.70
58929;BMP180;44713;53.378;10.022;2023-07-16T04:37:45;100699.00;;;18.60
58929;BMP180;44713;53.378;10.022;2023-07-16T04:40:11;100706.00;;;18.80
58929;BMP180;44713;53.378;10.022;2023-07-16T04:42:36;100688.00;;;19.00
58929;BMP180;44713;53.378;10.022;2023-07-16T04:45:02;100694.00;;;19.00
58929;BMP180;44713;53.378;10.022;2023-07-16T04:47:27;100693.00;;;19.10
58929;BMP180;44713;53.378;10.022;2023-07-16T04:49:53;100691.00;;;19.10
58929;BMP180;44713;53.378;10.022;2023-07-16T04:52:18;100690.00;;;19.10
58929;BMP180;44713;53.378;10.022;2023-07-16T04:54:44;100698.00;;;19.10
58929;BMP180;44713;53.378;10.022;2023-07-16T04:57:09;100698.00;;;18.90
58929;BMP180;44713;53.378;10.022;2023-07-16T04:59:35;100703.00;;;18.90
58929;BMP180;44713;53.378;10.022;2023-07-16T05:02:04;100702.00;;;19.00
58929;BMP180;44713;53.378;10.022;2023-07-16T05:04:29;100697.00;;;19.00
58929;BMP180;44713;53.378;10.022;2023-07-16T05:06:55;100702.00;;;18.90
58929;BMP180;44713;53.378;10.022;2023-07-16T05:09:20;100706.00;;;19.00
58929;BMP180;44713;53.378;10.022;2023-07-16T05:11:46;100715.00;;;19.00
58929;BMP180;44713;53.378;10.022;2023-07-16T05:14:11;100722.00;;;19.00
58929;BMP180;44713;53.378;10.022;2023-07-16T05:16:37;100716.00;;;19.10
58929;BMP180;44713;53.378;10.022;2023-07-16T05:19:02;100717.00;;;19.10
58929;BMP180;44713;53.378;10.022;2023-07-16T05:21:27;100720.00;;;19.10
58929;BMP180;44713;53.378;10.022;2023-07-16T05:23:52;100722.00;;;19.20
58929;BMP180;44713;53.378;10.022;2023-07-16T05:26:18;100730.00;;;19.20
58929;BMP180;44713;53.378;10.022;2023-07-16T05:28:43;100721.00;;;19.30
58929;BMP180;44713;53.378;10.022;2023-07-16T05:31:08;100721.00;;;19.30
58929;BMP180;44713;53.378;10.022;2023-07-16T05:33:34;100728.00;;;19.30
58929;BMP180;44713;53.378;10.022;2023-07-16T05:35:59;100730.00;;;19.40
58929;BMP180;44713;53.378;10.022;2023-07-16T05:38:24;100735.00;;;19.40
58929;BMP180;44713;53.378;10.022;2023-07-16T05:40:50;100741.00;;;19.40
58929;BMP180;44713;53.378;10.022;2023-07-16T05:43:15;100734.00;;;19.40
58929;BMP180;44713;53.378;10.022;2023-07-16T05:45:40;100744.00;;;19.50
58929;BMP180;44713;53.378;10.022;2023-07-16T05:48:06;100741.00;;;19.50
58929;BMP180;44713;53.378;10.022;2023-07-16T05:50:31;100750.00;;;19.60
58929;BMP180;44713;53.378;10.022;2023-07-16T05:52:56;100745.00;;;19.60
58929;BMP180;44713;53.378;10.022;2023-07-16T05:55:22;100751.00;;;19.70
58929;BMP180;44713;53.378;10.022;2023-07-16T05:57:47;100750.00;;;19.70
58929;BMP180;44713;53.378;10.022;2023-07-16T06:00:12;100747.00;;;19.80
58929;BMP180;44713;53.378;10.022;2023-07-16T06:02:40;100749.00;;;19.90
58929;BMP180;44713;53.378;10.022;2023-07-16T06:05:06;100751.00;;;19.90
58929;BMP180;44713;53.378;10.022;2023-07-16T06:07:32;100749.00;;;20.00
58929;BMP180;44713;53.378;10.022;2023-07-16T06:09:58;100744.00;;;20.10
58929;BMP180;44713;53.378;10.022;2023-07-16T06:12:23;100745.00;;;20.10
58929;BMP180;44713;53.378;10.022;2023-07-16T06:14:48;100743.00;;;20.20
58929;BMP180;44713;53.378;10.022;2023-07-16T06:17:14;100753.00;;;20.20
58929;BMP180;44713;53.378;10.022;2023-07-16T06:19:39;100755.00;;;20.20
58929;BMP180;44713;53.378;10.022;2023-07-16T06:22:04;100754.00;;;20.30
58929;BMP180;44713;53.378;10.022;2023-07-16T06:24:29;100754.00;;;20.30
58929;BMP180;44713;53.378;10.022;2023-07-16T06:26:55;100759.00;;;20.30
58929;BMP180;44713;53.378;10.022;2023-07-16T06:29:20;100764.00;;;20.40
58929;BMP180;44713;53.378;10.022;2023-07-16T06:31:56;100776.00;;;20.50
58929;BMP180;44713;53.378;10.022;2023-07-16T06:34:22;100768.00;;;20.50
58929;BMP180;44713;53.378;10.022;2023-07-16T06:36:47;100780.00;;;20.60
58929;BMP180;44713;53.378;10.022;2023-07-16T06:39:13;100783.00;;;20.50
58929;BMP180;44713;53.378;10.022;2023-07-16T06:41:38;100780.00;;;20.50
58929;BMP180;44713;53.378;10.022;2023-07-16T06:44:09;100790.00;;;20.50
58929;BMP180;44713;53.378;10.022;2023-07-16T06:46:35;100774.00;;;20.60
58929;BMP180;44713;53.378;10.022;2023-07-16T06:49:00;100785.00;;;20.70
58929;BMP180;44713;53.378;10.022;2023-07-16T06:51:25;100783.00;;;20.70
58929;BMP180;44713;53.378;10.022;2023-07-16T06:53:51;100795.00;;;20.70
58929;BMP180;44713;53.378;10.022;2023-07-16T06:56:16;100794.00;;;20.60
58929;BMP180;44713;53.378;10.022;2023-07-16T06:58:42;100797.00;;;20.70
58929;BMP180;44713;53.378;10.022;2023-07-16T07:01:07;100787.00;;;20.70
58929;BMP180;44713;53.378;10.022;2023-07-16T07:03:32;100795.00;;;20.80
58929;BMP180;44713;53.378;10.022;2023-07-16T07:06:02;100790.00;;;20.90
58929;BMP180;44713;53.378;10.022;2023-07-16T07:08:27;100783.00;;;20.90
58929;BMP180;44713;53.378;10.022;2023-07-16T07:10:52;100797.00;;;21.00
58929;BMP180;44713;53.378;10.022;2023-07-16T07:13:18;100797.00;;;21.10
58929;BMP180;44713;53.378;10.022;2023-07-16T07:15:43;100794.00;;;21.20
58929;BMP180;44713;53.378;10.022;2023-07-16T07:18:09;100795.00;;;21.30
58929;BMP180;44713;53.378;10.022;2023-07-16T07:20:34;100795.00;;;21.50
58929;BMP180;44713;53.378;10.022;2023-07-16T07:22:59;100810.00;;;21.40
58929;BMP180;44713;53.378;10.022;2023-07-16T07:25:29;100795.00;;;21.40
58929;BMP180;44713;53.378;10.022;2023-07-16T07:27:54;100788.00;;;21.30
58929;BMP180;44713;53.378;10.022;2023-07-16T07:30:19;100799.00;;;21.20
58929;BMP180;44713;53.378;10.022;2023-07-16T07:32:45;100791.00;;;21.20
58929;BMP180;44713;53.378;10.022;2023-07-16T07:35:10;100794.00;;;21.10
58929;BMP180;44713;53.378;10.022;2023-07-16T07:37:36;100801.00;;;21.10
58929;BMP180;44713;53.378;10.022;2023-07-16T07:40:02;100801.00;;;21.10
58929;BMP180;44713;53.378;10.022;2023-07-16T07:42:28;100801.00;;;21.20
58929;BMP180;44713;53.378;10.022;2023-07-16T07:44:54;100798.00;;;21.30
58929;BMP180;44713;53.378;10.022;2023-07-16T07:47:19;100789.00;;;21.50
58929;BMP180;44713;53.378;10.022;2023-07-16T07:49:44;100797.00;;;21.70
58929;BMP180;44713;53.378;10.022;2023-07-16T07:52:10;100792.00;;;21.80
58929;BMP180;44713;53.378;10.022;2023-07-16T07:54:35;100800.00;;;22.00
58929;BMP180;44713;53.378;10.022;2023-07-16T07:57:01;100805.00;;;21.90
58929;BMP180;44713;53.378;10.022;2023-07-16T07:59:30;100813.00;;;21.90
58929;BMP180;44713;53.378;10.022;2023-07-16T08:01:57;100794.00;;;21.90
58929;BMP180;44713;53.378;10.022;2023-07-16T08:04:23;100809.00;;;21.90
58929;BMP180;44713;53.378;10.022;2023-07-16T08:06:49;100805.00;;;21.80
58929;BMP180;44713;53.378;10.022;2023-07-16T08:09:14;100798.00;;;21.90
58929;BMP180;44713;53.378;10.022;2023-07-16T08:11:39;100798.00;;;22.20
58929;BMP180;44713;53.378;10.022;2023-07-16T08:14:05;100792.00;;;22.20
58929;BMP180;44713;53.378;10.022;2023-07-16T08:16:30;100796.00;;;22.30
58929;BMP180;44713;53.378;10.022;2023-07-16T08:18:55;100792.00;;;22.40
58929;BMP180;44713;53.378;10.022;2023-07-16T08:21:20;100789.00;;;22.60
58929;BMP180;44713;53.378;10.022;2023-07-16T08:23:49;100797.00;;;22.60
58929;BMP180;44713;53.378;10.022;2023-07-16T08:26:15;100796.00;;;22.50
58929;BMP180;44713;53.378;10.022;2023-07-16T08:28:40;100789.00;;;22.50
58929;BMP180;44713;53.378;10.022;2023-07-16T08:31:05;100795.00;;;22.50
58929;BMP180;44713;53.378;10.022;2023-07-16T08:33:31;100793.00;;;22.70
58929;BMP180;44713;53.378;10.022;2023-07-16T08:35:56;100804.00;;;22.90
58929;BMP180;44713;53.378;10.022;2023-07-16T08:38:24;100804.00;;;23.00
58929;BMP180;44713;53.378;10.022;2023-07-16T08:40:49;100812.00;;;23.10
58929;BMP180;44713;53.378;10.022;2023-07-16T08:43:16;100818.00;;;23.20
58929;BMP180;44713;53.378;10.022;2023-07-16T08:45:41;100815.00;;;22.70
58929;BMP180;44713;53.378;10.022;2023-07-16T08:48:10;100814.00;;;22.40
58929;BMP180;44713;53.378;10.022;2023-07-16T08:50:36;100813.00;;;22.70
58929;BMP180;44713;53.378;10.022;2023-07-16T08:53:04;100816.00;;;22.80
58929;BMP180;44713;53.378;10.022;2023-07-16T08:55:29;100822.00;;;23.20
58929;BMP180;44713;53.378;10.022;2023-07-16T08:57:55;100828.00;;;23.40
58929;BMP180;44713;53.378;10.022;2023-07-16T09:00:21;100831.00;;;23.50
58929;BMP180;44713;53.378;10.022;2023-07-16T09:02:48;100829.00;;;23.50
58929;BMP180;44713;53.378;10.022;2023-07-16T09:05:14;100836.00;;;23.80
58929;BMP180;44713;53.378;10.022;2023-07-16T09:07:40;100825.00;;;23.80
58929;BMP180;44713;53.378;10.022;2023-07-16T09:10:06;100827.00;;;23.60
58929;BMP180;44713;53.378;10.022;2023-07-16T09:12:31;100851.00;;;23.70
58929;BMP180;44713;53.378;10.022;2023-07-16T09:14:57;100851.00;;;23.60
58929;BMP180;44713;53.378;10.022;2023-07-16T09:17:23;100865.00;;;23.70
58929;BMP180;44713;53.378;10.022;2023-07-16T09:19:50;100860.00;;;23.40
58929;BMP180;44713;53.378;10.022;2023-07-16T09:22:19;100860.00;;;23.60
58929;BMP180;44713;53.378;10.022;2023-07-16T09:24:46;100854.00;;;23.90
58929;BMP180;44713;53.378;10.022;2023-07-16T09:27:12;100854.00;;;24.10
58929;BMP180;44713;53.378;10.022;2023-07-16T09:29:38;100865.00;;;24.20
58929;BMP180;44713;53.378;10.022;2023-07-16T09:32:04;100865.00;;;24.40
58929;BMP180;44713;53.378;10.022;2023-07-16T09:34:32;100859.00;;;24.50
58929;BMP180;44713;53.378;10.022;2023-07-16T09:36:59;100880.00;;;24.60
58929;BMP180;44713;53.378;10.022;2023-07-16T09:39:26;100865.00;;;24.40
58929;BMP180;44713;53.378;10.022;2023-07-16T09:41:52;100880.00;;;24.20
58929;BMP180;44713;53.378;10.022;2023-07-16T09:44:18;100888.00;;;23.90
58929;BMP180;44713;53.378;10.022;2023-07-16T09:46:44;100890.00;;;23.50
58929;BMP180;44713;53.378;10.022;2023-07-16T09:49:10;100880.00;;;23.50
58929;BMP180;44713;53.378;10.022;2023-07-16T09:51:38;100892.00;;;23.60
58929;BMP180;44713;53.378;10.022;2023-07-16T09:54:05;100899.00;;;23.40
58929;BMP180;44713;53.378;10.022;2023-07-16T09:56:39;100899.00;;;23.40
58929;BMP180;44713;53.378;10.022;2023-07-16T09:59:09;100894.00;;;23.40
58929;BMP180;44713;53.378;10.022;2023-07-16T10:01:37;100896.00;;;23.80
58929;BMP180;44713;53.378;10.022;2023-07-16T10:04:20;100905.00;;;24.00
58929;BMP180;44713;53.378;10.022;2023-07-16T10:06:57;100911.00;;;24.10
58929;BMP180;44713;53.378;10.022;2023-07-16T10:09:40;100916.00;;;24.40
58929;BMP180;44713;53.378;10.022;2023-07-16T10:12:21;100895.00;;;24.40
58929;BMP180;44713;53.378;10.022;2023-07-16T10:14:48;100905.00;;;24.90
58929;BMP180;44713;53.378;10.022;2023-07-16T10:17:15;100910.00;;;25.00
58929;BMP180;44713;53.378;10.022;2023-07-16T10:19:49;100917.00;;;25.20
58929;BMP180;44713;53.378;10.022;2023-07-16T10:22:14;100909.00;;;24.90
58929;BMP180;44713;53.378;10.022;2023-07-16T10:24:40;100909.00;;;25.20
58929;BMP180;44713;53.378;10.022;2023-07-16T10:27:05;100922.00;;;24.90
58929;BMP180;44713;53.378;10.022;2023-07-16T10:29:31;100928.00;;;24.50
58929;BMP180;44713;53.378;10.022;2023-07-16T10:31:58;100920.00;;;24.20
58929;BMP180;44713;53.378;10.022;2023-07-16T10:34:23;100924.00;;;24.00
58929;BMP180;44713;53.378;10.022;2023-07-16T10:36:50;100923.00;;;24.50
58929;BMP180;44713;53.378;10.022;2023-07-16T10:39:15;100937.00;;;25.00
58929;BMP180;44713;53.378;10.022;2023-07-16T10:41:41;100929.00;;;24.60
58929;BMP180;44713;53.378;10.022;2023-07-16T10:44:13;100936.00;;;24.30
58929;BMP180;44713;53.378;10.022;2023-07-16T10:46:41;100934.00;;;24.20
58929;BMP180;44713;53.378;10.022;2023-07-16T10:49:07;100938.00;;;24.10
58929;BMP180;44713;53.378;10.022;2023-07-16T10:51:32;100936.00;;;23.90
58929;BMP180;44713;53.378;10.022;2023-07-16T10:53:58;100946.00;;;23.90
58929;BMP180;44713;53.378;10.022;2023-07-16T10:56:23;100942.00;;;23.90
58929;BMP180;44713;53.378;10.022;2023-07-16T10:58:49;100946.00;;;23.90
58929;BMP180;44713;53.378;10.022;2023-07-16T11:01:15;100934.00;;;23.80
58929;BMP180;44713;53.378;10.022;2023-07-16T11:03:40;100948.00;;;24.00
58929;BMP180;44713;53.378;10.022;2023-07-16T11:06:09;100946.00;;;23.80
58929;BMP180;44713;53.378;10.022;2023-07-16T11:08:35;100939.00;;;23.80
58929;BMP180;44713;53.378;10.022;2023-07-16T11:11:00;100957.00;;;23.70
58929;BMP180;44713;53.378;10.022;2023-07-16T11:13:30;100952.00;;;23.70
58929;BMP180;44713;53.378;10.022;2023-07-16T11:15:56;100960.00;;;23.60
58929;BMP180;44713;53.378;10.022;2023-07-16T11:18:27;100952.00;;;23.70
58929;BMP180;44713;53.378;10.022;2023-07-16T11:20:53;100951.00;;;23.90
58929;BMP180;44713;53.378;10.022;2023-07-16T11:23:19;100958.00;;;24.20
58929;BMP180;44713;53.378;10.022;2023-07-16T11:25:48;100951.00;;;24.50
58929;BMP180;44713;53.378;10.022;2023-07-16T11:28:15;100954.00;;;24.90
58929;BMP180;44713;53.378;10.022;2023-07-16T11:30:41;100950.00;;;25.00
58929;BMP180;44713;53.378;10.022;2023-07-16T11:33:10;100951.00;;;25.20
58929;BMP180;44713;53.378;10.022;2023-07-16T11:35:37;100962.00;;;25.00
58929;BMP180;44713;53.378;10.022;2023-07-16T11:38:06;100961.00;;;25.10
58929;BMP180;44713;53.378;10.022;2023-07-16T11:40:36;100964.00;;;24.70
58929;BMP180;44713;53.378;10.022;2023-07-16T11:43:10;100951.00;;;25.00
58929;BMP180;44713;53.378;10.022;2023-07-16T11:45:36;100949.00;;;25.70
58929;BMP180;44713;53.378;10.022;2023-07-16T11:48:02;100959.00;;;25.40
58929;BMP180;44713;53.378;10.022;2023-07-16T11:50:28;100955.00;;;24.90
58929;BMP180;44713;53.378;10.022;2023-07-16T11:52:56;100960.00;;;24.70
58929;BMP180;44713;53.378;10.022;2023-07-16T11:55:27;100966.00;;;24.50
58929;BMP180;44713;53.378;10.022;2023-07-16T11:57:52;100959.00;;;24.50
58929;BMP180;44713;53.378;10.022;2023-07-16T12:00:18;100968.00;;;24.60
58929;BMP180;44713;53.378;10.022;2023-07-16T12:02:44;100972.00;;;24.80
58929;BMP180;44713;53.378;10.022;2023-07-16T12:05:19;100977.00;;;24.90
58929;BMP180;44713;53.378;10.022;2023-07-16T12:07:45;100982.00;;;24.60
58929;BMP180;44713;53.378;10.022;2023-07-16T12:10:10;100975.00;;;24.60
58929;BMP180;44713;53.378;10.022;2023-07-16T12:12:35;100981.00;;;24.70
58929;BMP180;44713;53.378;10.022;2023-07-16T12:15:06;100971.00;;;24.70
58929;BMP180;44713;53.378;10.022;2023-07-16T12:17:32;100981.00;;;24.80
58929;BMP180;44713;53.378;10.022;2023-07-16T12:19:57;100991.00;;;24.70
58929;BMP180;44713;53.378;10.022;2023-07-16T12:22:23;100995.00;;;24.50
58929;BMP180;44713;53.378;10.022;2023-07-16T12:24:49;100997.00;;;24.20
58929;BMP180;44713;53.378;10.022;2023-07-16T12:27:15;101000.00;;;23.90
58929;BMP180;44713;53.378;10.022;2023-07-16T12:29:41;101006.00;;;24.00
58929;BMP180;44713;53.378;10.022;2023-07-16T12:32:07;101000.00;;;24.10
58929;BMP180;44713;53.378;10.022;2023-07-16T12:34:33;100991.00;;;24.40
58929;BMP180;44713;53.378;10.022;2023-07-16T12:36:59;101006.00;;;24.80
58929;BMP180;44713;53.378;10.022;2023-07-16T12:39:24;100992.00;;;25.10
58929;BMP180;44713;53.378;10.022;2023-07-16T12:41:49;101006.00;;;25.30
58929;BMP180;44713;53.378;10.022;2023-07-16T12:44:15;101006.00;;;25.40
58929;BMP180;44713;53.378;10.022;2023-07-16T12:46:40;100997.00;;;25.30
58929;BMP180;44713;53.378;10.022;2023-07-16T12:49:05;101011.00;;;25.50
58929;BMP180;44713;53.378;10.022;2023-07-16T12:51:31;101019.00;;;25.50
58929;BMP180;44713;53.378;10.022;2023-07-16T12:53:56;101019.00;;;25.50
58929;BMP180;44713;53.378;10.022;2023-07-16T12:56:21;101018.00;;;25.50
58929;BMP180;44713;53.378;10.022;2023-07-16T12:58:47;101019.00;;;25.50
58929;BMP180;44713;53.378;10.022;2023-07-16T13:01:13;101005.00;;;25.40
58929;BMP180;44713;53.378;10.022;2023-07-16T13:03:38;101016.00;;;26.00
58929;BMP180;44713;53.378;10.022;2023-07-16T13:06:04;101015.00;;;25.90
58929;BMP180;44713;53.378;10.022;2023-07-16T13:08:29;101013.00;;;25.80
58929;BMP180;44713;53.378;10.022;2023-07-16T13:10:55;101022.00;;;26.00
58929;BMP180;44713;53.378;10.022;2023-07-16T13:13:20;101023.00;;;25.80
58929;BMP180;44713;53.378;10.022;2023-07-16T13:15:46;101026.00;;;26.20
58929;BMP180;44713;53.378;10.022;2023-07-16T13:18:11;101026.00;;;25.90
58929;BMP180;44713;53.378;10.022;2023-07-16T13:20:37;101022.00;;;25.80
58929;BMP180;44713;53.378;10.022;2023-07-16T13:23:02;101040.00;;;25.70
58929;BMP180;44713;53.378;10.022;2023-07-16T13:25:29;101035.00;;;26.00
58929;BMP180;44713;53.378;10.022;2023-07-16T13:27:55;101042.00;;;26.20
58929;BMP180;44713;53.378;10.022;2023-07-16T13:30:21;101026.00;;;26.30
58929;BMP180;44713;53.378;10.022;2023-07-16T13:32:48;101034.00;;;26.50
58929;BMP180;44713;53.378;10.022;2023-07-16T13:35:15;101029.00;;;26.50
58929;BMP180;44713;53.378;10.022;2023-07-16T13:37:41;101034.00;;;27.20
58929;BMP180;44713;53.378;10.022;2023-07-16T13:40:07;101039.00;;;27.30
58929;BMP180;44713;53.378;10.022;2023-07-16T13:42:33;101038.00;;;27.00
58929;BMP180;44713;53.378;10.022;2023-07-16T13:44:58;101046.00;;;26.80